createdAt,value
2023-04-20T00:00:18.749Z,25.89
2023-04-20T00:01:18.786Z,25.89
2023-04-20T00:02:18.857Z,25.89
2023-04-20T00:03:19.035Z,25.89
2023-04-20T00:04:18.839Z,25.89
2023-04-20T00:05:18.925Z,25.88
2023-04-20T00:06:18.930Z,25.89
2023-04-20T00:07:18.900Z,25.89
2023-04-20T00:08:18.965Z,25.92
2023-04-20T00:09:19.147Z,25.89
2023-04-20T00:10:18.997Z,25.88
2023-04-20T00:11:19.044Z,25.91
2023-04-20T00:12:19.063Z,25.89
2023-04-20T00:13:19.066Z,25.89
2023-04-20T00:14:19.089Z,25.89
2023-04-20T00:15:19.132Z,25.89
2023-04-20T00:16:19.193Z,25.89
2023-04-20T00:17:19.230Z,25.88
2023-04-20T00:18:19.331Z,25.88
2023-04-20T00:19:19.355Z,25.89
2023-04-20T00:20:19.310Z,25.88
2023-04-20T00:21:19.364Z,25.88
2023-04-20T00:22:19.404Z,25.89
2023-04-20T00:23:19.459Z,25.88
2023-04-20T00:24:19.521Z,25.87
2023-04-20T00:25:19.544Z,25.88
2023-04-20T00:26:19.599Z,25.88
2023-04-20T00:27:19.632Z,25.87
2023-04-20T00:28:19.702Z,25.89
2023-04-20T00:29:19.779Z,25.88
2023-04-20T00:30:19.788Z,25.91
2023-04-20T00:31:19.888Z,25.91
2023-04-20T00:32:19.955Z,25.88
2023-04-20T00:33:19.972Z,25.88
2023-04-20T00:34:20.026Z,25.88
2023-04-20T00:35:20.058Z,25.88
2023-04-20T00:36:20.148Z,25.88
2023-04-20T00:37:20.200Z,25.88
2023-04-20T00:38:20.242Z,25.87
2023-04-20T00:39:20.302Z,25.88
2023-04-20T00:40:20.341Z,25.91
2023-04-20T00:41:20.408Z,25.91
2023-04-20T00:42:20.437Z,25.88
2023-04-20T00:43:20.518Z,25.87
2023-04-20T00:44:20.505Z,25.89
2023-04-20T00:45:20.517Z,25.88
2023-04-20T00:46:20.632Z,25.89
2023-04-20T00:47:20.677Z,25.88
2023-04-20T00:48:20.703Z,25.88
2023-04-20T00:49:20.726Z,25.88
2023-04-20T00:50:20.748Z,25.87
2023-04-20T00:51:20.771Z,25.88
2023-04-20T00:52:20.762Z,25.88
2023-04-20T00:53:20.764Z,25.88
2023-04-20T00:54:20.816Z,25.89
2023-04-20T00:55:20.884Z,25.87
2023-04-20T00:56:20.873Z,25.88
2023-04-20T00:57:20.913Z,25.91
2023-04-20T00:58:20.941Z,25.87
2023-04-20T00:59:20.996Z,25.88
2023-04-20T01:00:21.045Z,25.89
2023-04-20T01:01:21.102Z,25.87
2023-04-20T01:02:21.130Z,25.89
2023-04-20T01:03:21.136Z,25.85
2023-04-20T01:04:21.238Z,25.88
2023-04-20T01:05:21.213Z,25.89
2023-04-20T01:06:21.232Z,25.85
2023-04-20T01:07:21.223Z,25.87
2023-04-20T01:08:21.226Z,25.88
2023-04-20T01:09:21.237Z,25.87
2023-04-20T01:10:21.224Z,25.89
2023-04-20T01:11:21.237Z,25.88
2023-04-20T01:12:21.205Z,25.87
2023-04-20T01:13:21.254Z,25.87
2023-04-20T01:14:21.248Z,25.91
2023-04-20T01:15:21.298Z,25.85
2023-04-20T01:16:21.326Z,25.87
2023-04-20T01:17:21.378Z,25.87
2023-04-20T01:18:21.416Z,25.87
2023-04-20T01:19:21.442Z,25.88
2023-04-20T01:20:21.491Z,25.89
2023-04-20T01:21:21.487Z,25.88
2023-04-20T01:22:21.490Z,25.85
2023-04-20T01:23:21.476Z,25.85
2023-04-20T01:24:21.511Z,25.88
2023-04-20T01:25:21.561Z,25.87
2023-04-20T01:26:21.634Z,25.87
2023-04-20T01:27:21.672Z,25.88
2023-04-20T01:28:21.745Z,25.88
2023-04-20T01:29:21.852Z,25.87
2023-04-20T01:30:21.853Z,25.87
2023-04-20T01:31:21.876Z,25.87
2023-04-20T01:32:22.010Z,25.89
2023-04-20T01:33:21.955Z,25.85
2023-04-20T01:34:22.016Z,25.87
2023-04-20T01:35:22.025Z,25.88
2023-04-20T01:36:22.079Z,25.87
2023-04-20T01:37:22.158Z,25.88
2023-04-20T01:38:22.215Z,25.87
2023-04-20T01:39:22.326Z,25.85
2023-04-20T01:40:22.333Z,25.87
2023-04-20T01:41:22.378Z,25.85
2023-04-20T01:42:22.420Z,25.84
2023-04-20T01:43:22.489Z,25.88
2023-04-20T01:44:22.539Z,25.85
2023-04-20T01:45:22.612Z,25.87
2023-04-20T01:46:22.772Z,25.85
2023-04-20T01:47:22.882Z,25.88
2023-04-20T01:48:22.747Z,25.88
2023-04-20T01:49:22.791Z,25.87
2023-04-20T01:50:22.787Z,25.88
2023-04-20T01:51:22.782Z,25.88
2023-04-20T01:52:22.791Z,25.88
2023-04-20T01:53:22.778Z,25.85
2023-04-20T01:54:22.789Z,25.87
2023-04-20T01:55:22.826Z,25.87
2023-04-20T01:56:22.858Z,25.87
2023-04-20T01:57:22.914Z,25.88
2023-04-20T01:58:22.972Z,25.85
2023-04-20T01:59:23.032Z,25.85
2023-04-20T02:00:23.137Z,25.84
2023-04-20T02:01:23.239Z,25.87
2023-04-20T02:02:23.310Z,25.87
2023-04-20T02:03:23.410Z,25.87
2023-04-20T02:04:23.299Z,25.88
2023-04-20T02:05:23.360Z,25.84
2023-04-20T02:06:23.422Z,25.88
2023-04-20T02:07:23.477Z,25.85
2023-04-20T02:08:23.531Z,25.85
2023-04-20T02:09:23.607Z,25.87
2023-04-20T02:10:23.636Z,25.87
2023-04-20T02:11:23.680Z,25.85
2023-04-20T02:12:23.742Z,25.88
2023-04-20T02:13:23.776Z,25.85
2023-04-20T02:14:23.730Z,25.85
2023-04-20T02:15:23.748Z,25.87
2023-04-20T02:16:23.752Z,25.87
2023-04-20T02:17:23.919Z,25.87
2023-04-20T02:18:23.738Z,25.89
2023-04-20T02:19:23.731Z,25.88
2023-04-20T02:20:23.733Z,25.85
2023-04-20T02:21:23.769Z,25.87
2023-04-20T02:22:23.828Z,25.85
2023-04-20T02:23:23.912Z,25.87
2023-04-20T02:24:23.929Z,25.87
2023-04-20T02:25:24.010Z,25.85
2023-04-20T02:26:24.061Z,25.84
2023-04-20T02:27:24.110Z,25.88
2023-04-20T02:28:24.205Z,25.88
2023-04-20T02:29:24.237Z,25.88
2023-04-20T02:30:24.282Z,25.87
2023-04-20T02:31:24.367Z,25.85
2023-04-20T02:32:24.428Z,25.88
2023-04-20T02:33:24.455Z,25.85
2023-04-20T02:34:24.510Z,25.88
2023-04-20T02:35:24.490Z,25.88
2023-04-20T02:36:24.491Z,25.85
2023-04-20T02:37:24.501Z,25.88
2023-04-20T02:38:24.517Z,25.87
2023-04-20T02:39:24.506Z,25.84
2023-04-20T02:40:24.484Z,25.87
2023-04-20T02:41:24.502Z,25.84
2023-04-20T02:42:24.526Z,25.85
2023-04-20T02:43:24.592Z,25.85
2023-04-20T02:44:24.597Z,25.85
2023-04-20T02:45:24.632Z,25.85
2023-04-20T02:46:24.723Z,25.85
2023-04-20T02:47:24.827Z,25.87
2023-04-20T02:48:24.860Z,25.84
2023-04-20T02:49:24.896Z,25.85
2023-04-20T02:50:24.952Z,25.84
2023-04-20T02:51:24.973Z,25.84
2023-04-20T02:52:25.050Z,25.85
2023-04-20T02:53:25.117Z,25.85
2023-04-20T02:54:25.162Z,25.84
2023-04-20T02:55:25.214Z,25.87
2023-04-20T02:56:25.293Z,25.87
2023-04-20T02:57:25.358Z,25.83
2023-04-20T02:58:25.428Z,25.84
2023-04-20T02:59:25.458Z,25.89
2023-04-20T03:00:25.525Z,25.85
2023-04-20T03:01:25.600Z,25.85
2023-04-20T03:02:25.753Z,25.83
2023-04-20T03:03:25.770Z,25.85
2023-04-20T03:04:26.033Z,25.85
2023-04-20T03:05:25.804Z,25.85
2023-04-20T03:06:25.880Z,25.87
2023-04-20T03:07:25.921Z,25.85
2023-04-20T03:08:26.009Z,25.85
2023-04-20T03:09:26.056Z,25.85
2023-04-20T03:10:26.115Z,25.84
2023-04-20T03:11:26.151Z,25.84
2023-04-20T03:12:26.210Z,25.85
2023-04-20T03:13:26.211Z,25.84
2023-04-20T03:14:26.174Z,25.85
2023-04-20T03:15:26.173Z,25.84
2023-04-20T03:16:26.182Z,25.84
2023-04-20T03:17:26.284Z,25.85
2023-04-20T03:18:26.301Z,25.87
2023-04-20T03:19:26.328Z,25.85
2023-04-20T03:20:26.365Z,25.83
2023-04-20T03:21:26.427Z,25.87
2023-04-20T03:22:26.477Z,25.84
2023-04-20T03:23:26.566Z,25.85
2023-04-20T03:24:26.580Z,25.84
2023-04-20T03:25:26.647Z,25.85
2023-04-20T03:26:26.684Z,25.84
2023-04-20T03:27:26.753Z,25.87
2023-04-20T03:28:26.802Z,25.85
2023-04-20T03:29:26.883Z,25.83
2023-04-20T03:30:26.917Z,25.85
2023-04-20T03:31:27.066Z,25.85
2023-04-20T03:32:27.016Z,25.87
2023-04-20T03:33:27.105Z,25.85
2023-04-20T03:34:27.139Z,25.85
2023-04-20T03:35:27.181Z,25.83
2023-04-20T03:36:27.230Z,25.84
2023-04-20T03:37:27.301Z,25.84
2023-04-20T03:38:27.333Z,25.85
2023-04-20T03:39:27.336Z,25.84
2023-04-20T03:40:27.392Z,25.83
2023-04-20T03:41:27.402Z,25.81
2023-04-20T03:42:27.430Z,25.84
2023-04-20T03:43:27.474Z,25.83
2023-04-20T03:44:27.462Z,25.84
2023-04-20T03:45:27.481Z,25.85
2023-04-20T03:46:27.569Z,25.84
2023-04-20T03:47:27.525Z,25.87
2023-04-20T03:48:27.521Z,25.85
2023-04-20T03:49:27.548Z,25.83
2023-04-20T03:50:27.611Z,25.87
2023-04-20T03:51:27.673Z,25.85
2023-04-20T03:52:27.724Z,25.85
2023-04-20T03:53:27.896Z,25.83
2023-04-20T03:54:27.835Z,25.85
2023-04-20T03:55:27.892Z,25.85
2023-04-20T03:56:27.952Z,25.84
2023-04-20T03:57:28.002Z,25.83
2023-04-20T03:58:28.080Z,25.85
2023-04-20T03:59:28.123Z,25.85
2023-04-20T04:00:28.161Z,25.84
2023-04-20T04:01:28.243Z,25.84
2023-04-20T04:02:28.443Z,25.84
2023-04-20T04:03:28.543Z,25.83
2023-04-20T04:04:28.577Z,25.84
2023-04-20T04:05:28.613Z,25.83
2023-04-20T04:06:28.526Z,25.84
2023-04-20T04:07:28.557Z,25.85
2023-04-20T04:08:28.657Z,25.85
2023-04-20T04:09:28.676Z,25.84
2023-04-20T04:10:28.736Z,25.84
2023-04-20T04:11:28.789Z,25.84
2023-04-20T04:12:28.828Z,25.83
2023-04-20T04:13:28.885Z,25.81
2023-04-20T04:14:28.941Z,25.84
2023-04-20T04:15:28.995Z,25.84
2023-04-20T04:16:29.099Z,25.83
2023-04-20T04:17:29.080Z,25.84
2023-04-20T04:18:29.126Z,25.84
2023-04-20T04:19:29.099Z,25.84
2023-04-20T04:20:29.116Z,25.85
2023-04-20T04:21:29.153Z,25.81
2023-04-20T04:22:30.570Z,25.84
2023-04-20T04:23:29.161Z,25.85
2023-04-20T04:24:29.157Z,25.83
2023-04-20T04:25:29.181Z,25.87
2023-04-20T04:26:29.158Z,25.84
2023-04-20T04:27:29.191Z,25.84
2023-04-20T04:28:29.451Z,25.84
2023-04-20T04:29:29.275Z,25.83
2023-04-20T04:30:29.256Z,25.84
2023-04-20T04:31:29.355Z,25.84
2023-04-20T04:32:29.305Z,25.84
2023-04-20T04:33:29.260Z,25.84
2023-04-20T04:34:29.263Z,25.84
2023-04-20T04:35:29.255Z,25.85
2023-04-20T04:36:29.254Z,25.85
2023-04-20T04:37:29.279Z,25.85
2023-04-20T04:38:29.295Z,25.85
2023-04-20T04:39:29.297Z,25.83
2023-04-20T04:40:29.336Z,25.84
2023-04-20T04:41:29.333Z,25.81
2023-04-20T04:42:29.382Z,25.83
2023-04-20T04:43:29.499Z,25.84
2023-04-20T04:44:29.507Z,25.83
2023-04-20T04:45:29.533Z,25.83
2023-04-20T04:46:29.597Z,25.85
2023-04-20T04:47:29.647Z,25.83
2023-04-20T04:48:29.683Z,25.85
2023-04-20T04:49:29.582Z,25.85
2023-04-20T04:50:29.605Z,25.84
2023-04-20T04:51:29.636Z,25.85
2023-04-20T04:52:29.679Z,25.83
2023-04-20T04:53:29.701Z,25.83
2023-04-20T04:54:29.731Z,25.84
2023-04-20T04:55:29.721Z,25.87
2023-04-20T04:56:29.781Z,25.84
2023-04-20T04:57:29.754Z,25.87
2023-04-20T04:58:29.853Z,25.85
2023-04-20T04:59:29.854Z,25.87
2023-04-20T05:00:29.905Z,25.87
2023-04-20T05:01:29.977Z,25.84
2023-04-20T05:02:30.131Z,25.87
2023-04-20T05:03:30.075Z,25.84
2023-04-20T05:04:30.077Z,25.85
2023-04-20T05:05:30.051Z,25.85
2023-04-20T05:06:30.041Z,25.85
2023-04-20T05:07:30.101Z,25.87
2023-04-20T05:08:30.198Z,25.89
2023-04-20T05:09:30.220Z,25.89
2023-04-20T05:10:30.283Z,25.85
2023-04-20T05:11:30.340Z,25.88
2023-04-20T05:12:30.390Z,25.89
2023-04-20T05:13:30.456Z,25.88
2023-04-20T05:14:30.540Z,25.89
2023-04-20T05:15:30.581Z,25.91
2023-04-20T05:16:30.637Z,25.91
2023-04-20T05:17:30.733Z,25.91
2023-04-20T05:18:30.767Z,25.89
2023-04-20T05:19:30.801Z,25.94
2023-04-20T05:20:30.863Z,25.91
2023-04-20T05:21:30.904Z,25.92
2023-04-20T05:22:30.927Z,25.92
2023-04-20T05:23:31.477Z,25.94
2023-04-20T05:24:31.039Z,25.94
2023-04-20T05:25:31.054Z,25.92
2023-04-20T05:26:31.108Z,25.95
2023-04-20T05:27:31.128Z,25.98
2023-04-20T05:28:31.156Z,25.99
2023-04-20T05:29:31.183Z,25.96
2023-04-20T05:30:31.197Z,25.99
2023-04-20T05:31:31.207Z,25.96
2023-04-20T05:32:31.249Z,25.94
2023-04-20T05:33:31.273Z,25.96
2023-04-20T05:34:31.235Z,25.99
2023-04-20T05:35:31.271Z,26.01
2023-04-20T05:36:31.334Z,26.04
2023-04-20T05:37:31.348Z,26.06
2023-04-20T05:38:31.446Z,26.09
2023-04-20T05:39:31.452Z,26.09
2023-04-20T05:40:31.487Z,26.09
2023-04-20T05:41:31.542Z,26.09
2023-04-20T05:42:31.597Z,26.08
2023-04-20T05:43:31.637Z,26.09
2023-04-20T05:44:31.635Z,26.14
2023-04-20T05:45:31.698Z,26.15
2023-04-20T05:46:31.700Z,26.19
2023-04-20T05:47:31.717Z,26.21
2023-04-20T05:48:31.713Z,26.25
2023-04-20T05:49:32.466Z,26.29
2023-04-20T05:50:31.710Z,26.32
2023-04-20T05:51:31.736Z,26.35
2023-04-20T05:52:31.702Z,26.36
2023-04-20T05:53:31.765Z,26.45
2023-04-20T05:54:31.793Z,26.45
2023-04-20T05:55:31.817Z,26.46
2023-04-20T05:56:31.844Z,26.48
2023-04-20T05:57:31.835Z,26.49
2023-04-20T05:58:31.857Z,26.55
2023-04-20T05:59:31.989Z,26.58
2023-04-20T06:00:31.864Z,26.59
2023-04-20T06:01:31.906Z,26.64
2023-04-20T06:02:32.037Z,26.69
2023-04-20T06:03:32.053Z,26.69
2023-04-20T06:04:32.220Z,26.68
2023-04-20T06:05:32.044Z,26.72
2023-04-20T06:06:31.903Z,26.75
2023-04-20T06:07:31.900Z,26.76
2023-04-20T06:08:31.966Z,26.76
2023-04-20T06:09:31.983Z,26.80
2023-04-20T06:10:32.034Z,26.82
2023-04-20T06:11:32.045Z,26.86
2023-04-20T06:12:32.101Z,26.82
2023-04-20T06:13:32.146Z,26.85
2023-04-20T06:14:32.147Z,26.87
2023-04-20T06:15:32.263Z,26.92
2023-04-20T06:16:32.280Z,26.92
2023-04-20T06:17:32.283Z,26.87
2023-04-20T06:18:32.261Z,26.90
2023-04-20T06:19:32.262Z,26.92
2023-04-20T06:20:32.293Z,26.96
2023-04-20T06:21:32.257Z,26.97
2023-04-20T06:22:32.308Z,26.99
2023-04-20T06:23:32.343Z,26.97
2023-04-20T06:24:32.464Z,26.96
2023-04-20T06:25:32.396Z,26.94
2023-04-20T06:26:32.437Z,26.96
2023-04-20T06:27:32.508Z,26.97
2023-04-20T06:28:32.563Z,26.99
2023-04-20T06:29:32.614Z,26.96
2023-04-20T06:30:32.607Z,27.00
2023-04-20T06:31:32.698Z,26.97
2023-04-20T06:32:32.749Z,27.02
2023-04-20T06:33:33.017Z,27.04
2023-04-20T06:34:32.686Z,27.10
2023-04-20T06:35:32.689Z,27.13
2023-04-20T06:36:32.697Z,27.16
2023-04-20T06:37:32.665Z,27.18
2023-04-20T06:38:32.987Z,27.23
2023-04-20T06:39:32.682Z,27.17
2023-04-20T06:40:32.666Z,27.24
2023-04-20T06:41:32.687Z,27.22
2023-04-20T06:42:32.710Z,27.14
2023-04-20T06:43:32.768Z,27.17
2023-04-20T06:44:32.729Z,27.18
2023-04-20T06:45:34.145Z,27.23
2023-04-20T06:46:32.866Z,27.24
2023-04-20T06:47:32.920Z,27.26
2023-04-20T06:48:33.243Z,27.29
2023-04-20T06:49:32.959Z,27.26
2023-04-20T06:50:32.991Z,27.30
2023-04-20T06:51:33.010Z,27.29
2023-04-20T06:52:33.033Z,27.26
2023-04-20T06:53:33.076Z,27.23
2023-04-20T06:54:33.106Z,27.24
2023-04-20T06:55:33.135Z,27.23
2023-04-20T06:56:35.503Z,27.23
2023-04-20T06:57:33.349Z,27.23
2023-04-20T06:58:33.433Z,27.24
2023-04-20T06:59:34.384Z,27.24
2023-04-20T07:00:33.523Z,27.24
2023-04-20T07:01:33.552Z,27.26
2023-04-20T07:02:33.557Z,27.23
2023-04-20T07:03:33.692Z,27.24
2023-04-20T07:04:33.662Z,27.22
2023-04-20T07:05:33.667Z,27.24
2023-04-20T07:06:33.699Z,27.23
2023-04-20T07:07:33.763Z,27.22
2023-04-20T07:08:33.777Z,27.20
2023-04-20T07:09:34.019Z,27.18
2023-04-20T07:10:33.850Z,27.17
2023-04-20T07:11:33.893Z,27.18
2023-04-20T07:12:33.942Z,27.17
2023-04-20T07:13:34.201Z,27.20
2023-04-20T07:14:34.043Z,27.17
2023-04-20T07:15:34.079Z,27.14
2023-04-20T07:16:34.150Z,27.11
2023-04-20T07:17:34.136Z,27.11
2023-04-20T07:18:35.573Z,27.06
2023-04-20T07:19:34.146Z,27.06
2023-04-20T07:20:34.167Z,27.04
2023-04-20T07:21:34.496Z,27.00
2023-04-20T07:22:34.182Z,26.97
2023-04-20T07:23:34.221Z,26.97
2023-04-20T07:24:34.494Z,26.94
2023-04-20T07:25:34.314Z,26.75
2023-04-20T07:26:34.368Z,26.36
2023-04-20T07:27:34.373Z,25.55
2023-04-20T07:28:34.399Z,23.97
2023-04-20T07:29:34.450Z,23.51
2023-04-20T07:30:34.520Z,23.71
2023-04-20T07:31:35.510Z,23.91
2023-04-20T07:32:34.707Z,24.11
2023-04-20T07:33:34.614Z,24.31
2023-04-20T07:34:34.994Z,24.54
2023-04-20T07:35:34.660Z,24.76
2023-04-20T07:36:34.695Z,24.97
2023-04-20T07:37:34.736Z,25.14
2023-04-20T07:38:34.820Z,25.34
2023-04-20T07:39:34.817Z,25.45
2023-04-20T07:40:34.922Z,25.61
2023-04-20T07:41:34.881Z,25.77
2023-04-20T07:42:34.908Z,25.88
2023-04-20T07:43:34.898Z,25.99
2023-04-20T07:44:35.018Z,26.09
2023-04-20T07:45:35.126Z,26.18
2023-04-20T07:46:35.056Z,26.24
2023-04-20T07:47:35.081Z,26.32
2023-04-20T07:48:35.047Z,26.43
2023-04-20T07:49:35.099Z,26.52
2023-04-20T07:50:35.188Z,26.55
2023-04-20T07:51:35.244Z,26.63
2023-04-20T07:52:35.293Z,26.68
2023-04-20T07:53:35.513Z,26.72
2023-04-20T07:54:35.531Z,26.76
2023-04-20T07:55:35.676Z,26.79
2023-04-20T07:56:35.454Z,26.86
2023-04-20T07:57:35.432Z,26.93
2023-04-20T07:58:35.430Z,26.96
2023-04-20T07:59:35.447Z,26.99
2023-04-20T08:00:35.485Z,27.00
2023-04-20T08:01:35.565Z,27.06
2023-04-20T08:02:35.727Z,27.04
2023-04-20T08:03:35.913Z,27.10
2023-04-20T08:04:35.986Z,27.11
2023-04-20T08:05:35.853Z,27.11
2023-04-20T08:06:35.804Z,27.13
2023-04-20T08:07:35.855Z,27.14
2023-04-20T08:08:35.894Z,27.18
2023-04-20T08:09:36.082Z,27.24
2023-04-20T08:10:35.892Z,27.29
2023-04-20T08:11:35.912Z,27.32
2023-04-20T08:12:35.970Z,27.32
2023-04-20T08:13:35.937Z,27.33
2023-04-20T08:14:35.944Z,27.30
2023-04-20T08:15:36.074Z,27.27
2023-04-20T08:16:36.104Z,27.29
2023-04-20T08:17:36.129Z,27.30
2023-04-20T08:18:36.122Z,27.34
2023-04-20T08:19:36.221Z,27.38
2023-04-20T08:20:36.353Z,27.38
2023-04-20T08:21:36.223Z,27.47
2023-04-20T08:22:36.256Z,27.51
2023-04-20T08:23:36.257Z,27.54
2023-04-20T08:24:36.529Z,27.60
2023-04-20T08:25:36.383Z,27.61
2023-04-20T08:26:36.392Z,27.65
2023-04-20T08:27:36.346Z,27.67
2023-04-20T08:28:36.370Z,27.67
2023-04-20T08:29:36.553Z,27.68
2023-04-20T08:30:36.482Z,27.71
2023-04-20T08:31:36.576Z,27.74
2023-04-20T08:32:36.593Z,27.75
2023-04-20T08:33:36.587Z,27.75
2023-04-20T08:34:37.272Z,27.72
2023-04-20T08:35:36.648Z,27.72
2023-04-20T08:36:36.692Z,27.74
2023-04-20T08:37:36.714Z,27.72
2023-04-20T08:38:36.763Z,27.74
2023-04-20T08:39:36.841Z,27.78
2023-04-20T08:40:36.945Z,27.78
2023-04-20T08:41:36.987Z,27.74
2023-04-20T08:42:36.930Z,27.71
2023-04-20T08:43:36.939Z,27.64
2023-04-20T08:44:36.963Z,27.62
2023-04-20T08:45:37.020Z,27.58
2023-04-20T08:46:37.092Z,27.54
2023-04-20T08:47:37.121Z,27.53
2023-04-20T08:48:37.173Z,27.50
2023-04-20T08:49:37.177Z,27.50
2023-04-20T08:50:37.177Z,27.50
2023-04-20T08:51:37.221Z,27.47
2023-04-20T08:52:37.233Z,27.47
2023-04-20T08:53:37.276Z,27.48
2023-04-20T08:54:45.984Z,27.48
2023-04-20T08:55:38.405Z,27.48
2023-04-20T08:56:37.432Z,27.54
2023-04-20T08:57:37.296Z,27.56
2023-04-20T08:58:37.384Z,27.56
2023-04-20T08:59:37.284Z,27.54
2023-04-20T09:00:37.425Z,27.58
2023-04-20T09:01:37.315Z,27.61
2023-04-20T09:02:37.397Z,27.60
2023-04-20T09:03:37.473Z,27.68
2023-04-20T09:04:37.610Z,27.71
2023-04-20T09:05:37.360Z,27.71
2023-04-20T09:06:37.396Z,27.71
2023-04-20T09:07:37.498Z,27.65
2023-04-20T09:08:37.470Z,27.61
2023-04-20T09:09:37.474Z,27.60
2023-04-20T09:10:37.517Z,27.54
2023-04-20T09:11:37.533Z,27.44
2023-04-20T09:12:37.646Z,27.41
2023-04-20T09:13:37.670Z,27.34
2023-04-20T09:14:37.682Z,27.33
2023-04-20T09:15:37.685Z,27.30
2023-04-20T09:16:37.844Z,27.23
2023-04-20T09:17:37.812Z,27.11
2023-04-20T09:18:37.847Z,27.11
2023-04-20T09:19:38.032Z,27.10
2023-04-20T09:20:37.885Z,27.07
2023-04-20T09:21:37.906Z,27.07
2023-04-20T09:22:37.930Z,27.07
2023-04-20T09:23:38.010Z,27.09
2023-04-20T09:24:38.128Z,27.07
2023-04-20T09:25:38.065Z,27.07
2023-04-20T09:26:38.139Z,27.06
2023-04-20T09:27:38.186Z,27.07
2023-04-20T09:28:38.206Z,27.03
2023-04-20T09:29:38.553Z,27.03
2023-04-20T09:30:38.191Z,27.02
2023-04-20T09:31:38.252Z,26.97
2023-04-20T09:32:38.240Z,26.94
2023-04-20T09:33:38.210Z,26.89
2023-04-20T09:34:38.213Z,26.85
2023-04-20T09:35:38.222Z,26.78
2023-04-20T09:36:38.333Z,26.70
2023-04-20T09:37:38.349Z,26.60
2023-04-20T09:38:38.375Z,26.52
2023-04-20T09:39:38.543Z,26.39
2023-04-20T09:40:38.459Z,26.27
2023-04-20T09:41:38.454Z,26.17
2023-04-20T09:42:38.477Z,26.09
2023-04-20T09:43:38.486Z,26.04
2023-04-20T09:44:38.518Z,25.98
2023-04-20T09:45:38.629Z,25.94
2023-04-20T09:46:38.529Z,25.92
2023-04-20T09:47:38.530Z,25.91
2023-04-20T09:48:38.488Z,25.89
2023-04-20T09:49:38.533Z,25.74
2023-04-20T09:50:48.096Z,25.64
2023-04-20T09:51:39.538Z,25.58
2023-04-20T09:52:38.568Z,25.58
2023-04-20T09:53:38.553Z,25.63
2023-04-20T09:54:38.530Z,25.67
2023-04-20T09:55:38.545Z,25.74
2023-04-20T09:56:38.520Z,25.78
2023-04-20T09:57:38.526Z,25.87
2023-04-20T09:58:38.537Z,25.92
2023-04-20T09:59:38.515Z,26.01
2023-04-20T10:00:38.474Z,26.04
2023-04-20T10:01:38.567Z,26.12
2023-04-20T10:02:38.700Z,26.21
2023-04-20T10:03:38.698Z,26.29
2023-04-20T10:04:38.963Z,26.34
2023-04-20T10:05:38.657Z,26.40
2023-04-20T10:06:38.700Z,26.45
2023-04-20T10:07:38.705Z,26.52
2023-04-20T10:08:38.717Z,26.58
2023-04-20T10:09:38.751Z,26.63
2023-04-20T10:10:38.751Z,26.66
2023-04-20T10:11:51.567Z,26.75
2023-04-20T10:12:39.721Z,26.79
2023-04-20T10:13:38.732Z,26.85
2023-04-20T10:14:38.759Z,26.92
2023-04-20T10:15:38.703Z,26.97
2023-04-20T10:16:38.776Z,27.02
2023-04-20T10:17:38.801Z,27.06
2023-04-20T10:18:38.757Z,27.11
2023-04-20T10:19:38.678Z,27.17
2023-04-20T10:20:38.679Z,27.22
2023-04-20T10:21:38.666Z,27.26
2023-04-20T10:22:38.655Z,27.29
2023-04-20T10:23:38.674Z,27.30
2023-04-20T10:24:39.091Z,27.34
2023-04-20T10:25:38.657Z,27.38
2023-04-20T10:26:38.626Z,27.41
2023-04-20T10:27:38.638Z,27.46
2023-04-20T10:28:38.698Z,27.47
2023-04-20T10:29:38.767Z,27.57
2023-04-20T10:30:38.793Z,27.60
2023-04-20T10:31:38.845Z,27.65
2023-04-20T10:32:38.795Z,27.67
2023-04-20T10:33:38.879Z,27.69
2023-04-20T10:34:38.814Z,27.67
2023-04-20T10:35:38.861Z,27.68
2023-04-20T10:36:38.851Z,27.68
2023-04-20T10:37:38.888Z,27.68
2023-04-20T10:38:38.900Z,27.69
2023-04-20T10:39:38.955Z,27.69
2023-04-20T10:40:38.986Z,27.68
2023-04-20T10:41:39.003Z,27.71
2023-04-20T10:42:39.064Z,27.67
2023-04-20T10:43:39.210Z,27.68
2023-04-20T10:44:39.573Z,27.68
2023-04-20T10:45:39.229Z,27.71
2023-04-20T10:46:39.410Z,27.74
2023-04-20T10:47:39.393Z,27.74
2023-04-20T10:48:39.425Z,27.80
2023-04-20T10:49:39.480Z,27.88
2023-04-20T10:50:39.541Z,27.91
2023-04-20T10:51:39.584Z,27.91
2023-04-20T10:52:39.641Z,27.89
2023-04-20T10:53:39.688Z,27.89
2023-04-20T10:54:39.748Z,27.87
2023-04-20T10:55:39.790Z,27.85
2023-04-20T10:56:39.792Z,27.81
2023-04-20T10:57:39.811Z,27.80
2023-04-20T10:58:39.820Z,27.80
2023-04-20T10:59:39.888Z,27.78
2023-04-20T11:00:39.883Z,27.72
2023-04-20T11:01:39.945Z,27.67
2023-04-20T11:02:40.086Z,27.68
2023-04-20T11:03:40.177Z,27.62
2023-04-20T11:04:39.995Z,27.61
2023-04-20T11:05:40.085Z,27.58
2023-04-20T11:06:40.073Z,27.57
2023-04-20T11:07:40.129Z,27.57
2023-04-20T11:08:40.170Z,27.54
2023-04-20T11:09:40.241Z,27.50
2023-04-20T11:10:40.249Z,27.48
2023-04-20T11:11:40.261Z,27.44
2023-04-20T11:12:40.299Z,27.48
2023-04-20T11:13:40.332Z,27.41
2023-04-20T11:14:40.637Z,27.40
2023-04-20T11:15:40.360Z,27.40
2023-04-20T11:16:48.003Z,27.37
2023-04-20T11:17:41.457Z,27.36
2023-04-20T11:18:40.397Z,27.34
2023-04-20T11:19:40.621Z,27.34
2023-04-20T11:20:40.374Z,27.34
2023-04-20T11:21:40.367Z,27.32
2023-04-20T11:22:40.390Z,27.29
2023-04-20T11:23:40.373Z,27.30
2023-04-20T11:24:40.362Z,27.29
2023-04-20T11:25:40.354Z,27.27
2023-04-20T11:26:40.324Z,27.26
2023-04-20T11:27:40.330Z,27.26
2023-04-20T11:28:40.326Z,27.23
2023-04-20T11:29:40.355Z,27.23
2023-04-20T11:30:40.319Z,27.23
2023-04-20T11:31:40.418Z,27.24
2023-04-20T11:32:40.449Z,27.23
2023-04-20T11:33:40.313Z,27.24
2023-04-20T11:34:40.382Z,27.24
2023-04-20T11:35:40.366Z,27.24
2023-04-20T11:36:40.345Z,27.23
2023-04-20T11:37:40.395Z,27.23
2023-04-20T11:38:40.419Z,27.24
2023-04-20T11:39:40.480Z,27.24
2023-04-20T11:40:40.485Z,27.23
2023-04-20T11:41:40.531Z,27.23
2023-04-20T11:42:40.578Z,27.29
2023-04-20T11:43:40.600Z,27.26
2023-04-20T11:44:40.693Z,27.27
2023-04-20T11:45:40.727Z,27.26
2023-04-20T11:46:40.718Z,27.26
2023-04-20T11:47:40.846Z,27.24
2023-04-20T11:48:40.823Z,27.23
2023-04-20T11:49:40.885Z,27.24
2023-04-20T11:50:42.330Z,27.23
2023-04-20T11:51:40.895Z,27.23
2023-04-20T11:52:40.957Z,27.24
2023-04-20T11:53:40.982Z,27.24
2023-04-20T11:54:41.027Z,27.27
2023-04-20T11:55:41.060Z,27.27
2023-04-20T11:56:42.377Z,27.27
2023-04-20T11:57:41.127Z,27.29
2023-04-20T11:58:41.197Z,27.29
2023-04-20T11:59:41.203Z,27.27
2023-04-20T12:00:41.241Z,27.26
2023-04-20T12:01:41.267Z,27.29
2023-04-20T12:02:41.413Z,27.32
2023-04-20T12:03:41.597Z,27.29
2023-04-20T12:04:41.667Z,27.32
2023-04-20T12:05:41.360Z,27.30
2023-04-20T12:06:41.448Z,27.32
2023-04-20T12:07:41.440Z,27.33
2023-04-20T12:08:41.469Z,27.33
2023-04-20T12:09:41.580Z,27.32
2023-04-20T12:10:41.548Z,27.34
2023-04-20T12:11:41.523Z,27.36
2023-04-20T12:12:41.560Z,27.34
2023-04-20T12:13:41.564Z,27.36
2023-04-20T12:14:41.602Z,27.38
2023-04-20T12:15:41.749Z,27.38
2023-04-20T12:16:41.630Z,27.40
2023-04-20T12:17:41.748Z,27.41
2023-04-20T12:18:41.753Z,27.41
2023-04-20T12:19:41.828Z,27.41
2023-04-20T12:20:41.913Z,27.43
2023-04-20T12:21:41.954Z,27.44
2023-04-20T12:22:41.951Z,27.46
2023-04-20T12:23:41.966Z,27.44
2023-04-20T12:24:42.019Z,27.46
2023-04-20T12:25:42.048Z,27.46
2023-04-20T12:26:42.060Z,27.47
2023-04-20T12:27:42.076Z,27.47
2023-04-20T12:28:42.115Z,27.50
2023-04-20T12:29:42.117Z,27.48
2023-04-20T12:30:42.111Z,27.51
2023-04-20T12:31:42.188Z,27.54
2023-04-20T12:32:42.168Z,27.53
2023-04-20T12:33:42.159Z,27.54
2023-04-20T12:34:42.174Z,27.58
2023-04-20T12:35:42.206Z,27.57
2023-04-20T12:36:42.219Z,27.60
2023-04-20T12:37:42.197Z,27.62
2023-04-20T12:38:42.197Z,27.65
2023-04-20T12:39:42.246Z,27.68
2023-04-20T12:40:42.206Z,27.67
2023-04-20T12:41:42.296Z,27.69
2023-04-20T12:42:42.240Z,27.71
2023-04-20T12:43:42.267Z,27.71
2023-04-20T12:44:42.267Z,27.72
2023-04-20T12:45:42.293Z,27.75
2023-04-20T12:46:42.380Z,27.77
2023-04-20T12:47:42.367Z,27.77
2023-04-20T12:48:42.317Z,27.77
2023-04-20T12:49:42.332Z,27.80
2023-04-20T12:50:42.390Z,27.81
2023-04-20T12:51:42.418Z,27.80
2023-04-20T12:52:42.494Z,27.80